METAR Data
IDs: Format: Raw Decoded Include TAF

Data at: 1140 UTC 24 Jan 2021

PGUM 241054Z 08006KT 10SM CLR 26/22 A2991 RMK AO2 SLP119 T02610217
PGUM 240954Z 09004KT 10SM CLR 26/21 A2990 RMK AO2 SLP116 T02560211
PGUM 240854Z 08006KT 10SM CLR 26/21 A2989 RMK AO2 SLP113 T02610211 53010
PGUM 240754Z 09007KT 10SM CLR 27/21 A2987 RMK AO2 SLP107 T02720211
PGUM 240654Z 07011KT 10SM FEW027 28/21 A2986 RMK AO2 SLP104 T02830206
PGUM 240554Z 08012KT 10SM SCT028 28/21 A2986 RMK AO2 SLP102 T02830211 10294 20278 56010

PGUM 241120Z 2412/2518 08007KT P6SM SCT020